sensor_id;sensor_type;location;lat;lon;timestamp;pressure;altitude;pressure_sealevel;temperature;humidity
64933;BME280;51446;53.850;10.662;2023-12-04T00:00:18;101904.78;;;-1.80;100.00
64933;BME280;51446;53.850;10.662;2023-12-04T00:02:44;101920.97;;;-1.81;100.00
64933;BME280;51446;53.850;10.662;2023-12-04T00:05:09;101916.19;;;-1.66;100.00
64933;BME280;51446;53.850;10.662;2023-12-04T00:07:34;101920.19;;;-1.69;100.00
64933;BME280;51446;53.850;10.662;2023-12-04T00:09:59;101900.50;;;-1.69;100.00
64933;BME280;51446;53.850;10.662;2023-12-04T00:12:25;101906.97;;;-1.74;100.00
64933;BME280;51446;53.850;10.662;2023-12-04T00:14:50;101900.25;;;-1.82;100.00
64933;BME280;51446;53.850;10.662;2023-12-04T00:17:15;101904.91;;;-1.88;100.00
64933;BME280;51446;53.850;10.662;2023-12-04T00:19:40;101895.88;;;-1.73;100.00
64933;BME280;51446;53.850;10.662;2023-12-04T00:22:06;101897.94;;;-1.79;100.00
64933;BME280;51446;53.850;10.662;2023-12-04T00:24:31;101897.31;;;-1.77;100.00
64933;BME280;51446;53.850;10.662;2023-12-04T00:26:57;101896.13;;;-1.80;100.00
64933;BME280;51446;53.850;10.662;2023-12-04T00:29:23;101889.34;;;-1.90;100.00
64933;BME280;51446;53.850;10.662;2023-12-04T00:31:48;101887.03;;;-1.97;100.00
64933;BME280;51446;53.850;10.662;2023-12-04T00:34:13;101875.69;;;-1.99;100.00
64933;BME280;51446;53.850;10.662;2023-12-04T00:36:38;101872.75;;;-1.94;100.00
64933;BME280;51446;53.850;10.662;2023-12-04T00:39:04;101883.03;;;-1.94;100.00
64933;BME280;51446;53.850;10.662;2023-12-04T00:41:29;101875.84;;;-1.77;100.00
64933;BME280;51446;53.850;10.662;2023-12-04T00:43:54;101869.41;;;-1.93;100.00
64933;BME280;51446;53.850;10.662;2023-12-04T00:46:19;101862.72;;;-1.90;100.00
64933;BME280;51446;53.850;10.662;2023-12-04T00:48:45;101862.22;;;-2.07;100.00
64933;BME280;51446;53.850;10.662;2023-12-04T00:51:11;101864.16;;;-1.84;100.00
64933;BME280;51446;53.850;10.662;2023-12-04T00:53:36;101865.03;;;-1.83;100.00
64933;BME280;51446;53.850;10.662;2023-12-04T00:56:02;101846.03;;;-2.06;100.00
64933;BME280;51446;53.850;10.662;2023-12-04T00:58:27;101855.81;;;-1.92;100.00
64933;BME280;51446;53.850;10.662;2023-12-04T01:00:52;101858.09;;;-1.95;100.00
64933;BME280;51446;53.850;10.662;2023-12-04T01:03:17;101844.47;;;-2.04;100.00
64933;BME280;51446;53.850;10.662;2023-12-04T01:05:43;101855.91;;;-2.00;100.00
64933;BME280;51446;53.850;10.662;2023-12-04T01:08:08;101846.66;;;-1.98;100.00
64933;BME280;51446;53.850;10.662;2023-12-04T01:10:33;101838.97;;;-2.19;100.00
64933;BME280;51446;53.850;10.662;2023-12-04T01:12:58;101838.59;;;-2.13;100.00
64933;BME280;51446;53.850;10.662;2023-12-04T01:15:24;101836.78;;;-2.24;100.00
64933;BME280;51446;53.850;10.662;2023-12-04T01:17:49;101838.41;;;-2.15;100.00
64933;BME280;51446;53.850;10.662;2023-12-04T01:20:14;101844.22;;;-1.97;100.00
64933;BME280;51446;53.850;10.662;2023-12-04T01:22:40;101842.81;;;-2.14;100.00
64933;BME280;51446;53.850;10.662;2023-12-04T01:25:06;101836.41;;;-2.19;100.00
64933;BME280;51446;53.850;10.662;2023-12-04T01:27:31;101842.56;;;-2.17;100.00
64933;BME280;51446;53.850;10.662;2023-12-04T01:29:56;101838.03;;;-2.19;100.00
64933;BME280;51446;53.850;10.662;2023-12-04T01:32:22;101835.34;;;-2.31;100.00
64933;BME280;51446;53.850;10.662;2023-12-04T01:34:47;101834.09;;;-2.26;100.00
64933;BME280;51446;53.850;10.662;2023-12-04T01:37:12;101820.56;;;-2.23;100.00
64933;BME280;51446;53.850;10.662;2023-12-04T01:39:38;101827.50;;;-2.22;100.00
64933;BME280;51446;53.850;10.662;2023-12-04T01:42:03;101829.69;;;-2.17;100.00
64933;BME280;51446;53.850;10.662;2023-12-04T01:44:28;101829.19;;;-2.23;100.00
64933;BME280;51446;53.850;10.662;2023-12-04T01:46:54;101832.66;;;-2.33;100.00
64933;BME280;51446;53.850;10.662;2023-12-04T01:49:19;101823.25;;;-2.32;100.00
64933;BME280;51446;53.850;10.662;2023-12-04T01:51:44;101824.19;;;-2.42;100.00
64933;BME280;51446;53.850;10.662;2023-12-04T01:54:10;101829.94;;;-2.45;100.00
64933;BME280;51446;53.850;10.662;2023-12-04T01:56:36;101829.31;;;-2.42;100.00
64933;BME280;51446;53.850;10.662;2023-12-04T01:59:02;101816.31;;;-2.54;100.00
64933;BME280;51446;53.850;10.662;2023-12-04T02:01:28;101833.41;;;-2.34;100.00
64933;BME280;51446;53.850;10.662;2023-12-04T02:03:54;101821.19;;;-2.36;100.00
64933;BME280;51446;53.850;10.662;2023-12-04T02:06:21;101827.13;;;-2.48;100.00
64933;BME280;51446;53.850;10.662;2023-12-04T02:08:47;101813.72;;;-2.54;100.00
64933;BME280;51446;53.850;10.662;2023-12-04T02:11:13;101808.09;;;-2.39;100.00
64933;BME280;51446;53.850;10.662;2023-12-04T02:13:39;101811.34;;;-2.42;100.00
64933;BME280;51446;53.850;10.662;2023-12-04T02:16:05;101807.59;;;-2.56;100.00
64933;BME280;51446;53.850;10.662;2023-12-04T02:18:34;101791.13;;;-2.68;100.00
64933;BME280;51446;53.850;10.662;2023-12-04T02:21:00;101809.22;;;-2.67;100.00
64933;BME280;51446;53.850;10.662;2023-12-04T02:23:26;101811.91;;;-2.65;100.00
64933;BME280;51446;53.850;10.662;2023-12-04T02:25:58;101799.31;;;-2.72;100.00
64933;BME280;51446;53.850;10.662;2023-12-04T02:28:26;101804.19;;;-2.75;100.00
64933;BME280;51446;53.850;10.662;2023-12-04T02:30:53;101786.09;;;-2.77;100.00
64933;BME280;51446;53.850;10.662;2023-12-04T02:33:21;101790.34;;;-2.67;100.00
64933;BME280;51446;53.850;10.662;2023-12-04T02:35:49;101779.97;;;-2.69;100.00
64933;BME280;51446;53.850;10.662;2023-12-04T02:38:15;101781.72;;;-2.78;100.00
64933;BME280;51446;53.850;10.662;2023-12-04T02:40:41;101783.38;;;-2.89;100.00
64933;BME280;51446;53.850;10.662;2023-12-04T02:43:06;101777.38;;;-2.89;100.00
64933;BME280;51446;53.850;10.662;2023-12-04T02:45:31;101766.91;;;-3.01;100.00
64933;BME280;51446;53.850;10.662;2023-12-04T02:47:57;101772.81;;;-3.12;100.00
64933;BME280;51446;53.850;10.662;2023-12-04T02:50:22;101764.41;;;-2.91;100.00
64933;BME280;51446;53.850;10.662;2023-12-04T02:52:47;101770.31;;;-2.71;100.00
64933;BME280;51446;53.850;10.662;2023-12-04T02:55:12;101771.44;;;-2.88;100.00
64933;BME280;51446;53.850;10.662;2023-12-04T02:57:38;101772.50;;;-3.16;100.00
64933;BME280;51446;53.850;10.662;2023-12-04T03:00:03;101760.75;;;-3.03;100.00
64933;BME280;51446;53.850;10.662;2023-12-04T03:02:29;101745.69;;;-3.29;100.00
64933;BME280;51446;53.850;10.662;2023-12-04T03:04:54;101747.88;;;-3.24;100.00
64933;BME280;51446;53.850;10.662;2023-12-04T03:07:20;101754.06;;;-3.11;100.00
64933;BME280;51446;53.850;10.662;2023-12-04T03:09:46;101753.81;;;-3.04;100.00
64933;BME280;51446;53.850;10.662;2023-12-04T03:12:11;101750.25;;;-2.96;100.00
64933;BME280;51446;53.850;10.662;2023-12-04T03:14:36;101736.34;;;-3.08;100.00
64933;BME280;51446;53.850;10.662;2023-12-04T03:17:02;101731.47;;;-3.16;100.00
64933;BME280;51446;53.850;10.662;2023-12-04T03:19:27;101744.34;;;-3.05;100.00
64933;BME280;51446;53.850;10.662;2023-12-04T03:21:52;101737.91;;;-3.10;100.00
64933;BME280;51446;53.850;10.662;2023-12-04T03:24:17;101728.84;;;-3.36;100.00
64933;BME280;51446;53.850;10.662;2023-12-04T03:26:43;101740.94;;;-3.25;100.00
64933;BME280;51446;53.850;10.662;2023-12-04T03:29:08;101730.81;;;-3.23;100.00
64933;BME280;51446;53.850;10.662;2023-12-04T03:31:33;101727.00;;;-3.18;100.00
64933;BME280;51446;53.850;10.662;2023-12-04T03:33:59;101731.53;;;-2.95;100.00
64933;BME280;51446;53.850;10.662;2023-12-04T03:36:24;101717.16;;;-2.93;100.00
64933;BME280;51446;53.850;10.662;2023-12-04T03:38:49;101722.66;;;-2.99;100.00
64933;BME280;51446;53.850;10.662;2023-12-04T03:41:15;101718.72;;;-2.95;100.00
64933;BME280;51446;53.850;10.662;2023-12-04T03:43:41;101710.50;;;-2.91;100.00
64933;BME280;51446;53.850;10.662;2023-12-04T03:46:07;101713.06;;;-2.81;100.00
64933;BME280;51446;53.850;10.662;2023-12-04T03:48:32;101711.63;;;-2.98;100.00
64933;BME280;51446;53.850;10.662;2023-12-04T03:50:57;101711.00;;;-3.05;100.00
64933;BME280;51446;53.850;10.662;2023-12-04T03:53:23;101691.75;;;-3.00;100.00
64933;BME280;51446;53.850;10.662;2023-12-04T03:55:48;101698.94;;;-3.06;100.00
64933;BME280;51446;53.850;10.662;2023-12-04T03:58:13;101698.00;;;-3.17;100.00
64933;BME280;51446;53.850;10.662;2023-12-04T04:00:38;101701.84;;;-3.12;100.00
64933;BME280;51446;53.850;10.662;2023-12-04T04:03:06;101699.31;;;-3.02;100.00
64933;BME280;51446;53.850;10.662;2023-12-04T04:05:32;101698.25;;;-3.14;100.00
64933;BME280;51446;53.850;10.662;2023-12-04T04:07:59;101692.19;;;-3.35;100.00
64933;BME280;51446;53.850;10.662;2023-12-04T04:10:24;101679.53;;;-3.63;100.00
64933;BME280;51446;53.850;10.662;2023-12-04T04:12:50;101681.66;;;-3.38;100.00
64933;BME280;51446;53.850;10.662;2023-12-04T04:15:15;101673.06;;;-3.28;100.00
64933;BME280;51446;53.850;10.662;2023-12-04T04:17:40;101664.34;;;-3.41;100.00
64933;BME280;51446;53.850;10.662;2023-12-04T04:20:06;101672.53;;;-3.45;100.00
64933;BME280;51446;53.850;10.662;2023-12-04T04:22:31;101664.97;;;-3.43;100.00
64933;BME280;51446;53.850;10.662;2023-12-04T04:24:59;101664.31;;;-3.51;100.00
64933;BME280;51446;53.850;10.662;2023-12-04T04:27:24;101650.78;;;-3.40;100.00
64933;BME280;51446;53.850;10.662;2023-12-04T04:29:50;101648.97;;;-3.31;100.00
64933;BME280;51446;53.850;10.662;2023-12-04T04:32:15;101631.78;;;-3.42;100.00
64933;BME280;51446;53.850;10.662;2023-12-04T04:34:40;101640.13;;;-3.34;100.00
64933;BME280;51446;53.850;10.662;2023-12-04T04:37:05;101632.94;;;-3.38;100.00
64933;BME280;51446;53.850;10.662;2023-12-04T04:39:31;101632.53;;;-3.43;100.00
64933;BME280;51446;53.850;10.662;2023-12-04T04:41:56;101639.34;;;-3.43;100.00
64933;BME280;51446;53.850;10.662;2023-12-04T04:44:21;101619.44;;;-3.56;100.00
64933;BME280;51446;53.850;10.662;2023-12-04T04:46:46;101634.06;;;-3.55;100.00
64933;BME280;51446;53.850;10.662;2023-12-04T04:49:12;101632.78;;;-3.50;100.00
64933;BME280;51446;53.850;10.662;2023-12-04T04:51:37;101632.38;;;-3.55;100.00
64933;BME280;51446;53.850;10.662;2023-12-04T04:54:03;101633.66;;;-3.60;100.00
64933;BME280;51446;53.850;10.662;2023-12-04T04:56:29;101630.75;;;-3.44;100.00
64933;BME280;51446;53.850;10.662;2023-12-04T04:58:55;101614.91;;;-3.69;100.00
64933;BME280;51446;53.850;10.662;2023-12-04T05:01:20;101607.56;;;-3.85;100.00
64933;BME280;51446;53.850;10.662;2023-12-04T05:03:45;101604.88;;;-3.76;100.00
64933;BME280;51446;53.850;10.662;2023-12-04T05:06:10;101606.78;;;-3.94;100.00
64933;BME280;51446;53.850;10.662;2023-12-04T05:08:36;101623.47;;;-4.08;100.00
64933;BME280;51446;53.850;10.662;2023-12-04T05:11:01;101624.59;;;-4.15;100.00
64933;BME280;51446;53.850;10.662;2023-12-04T05:13:26;101622.47;;;-4.10;100.00
64933;BME280;51446;53.850;10.662;2023-12-04T05:15:52;101604.41;;;-4.31;100.00
64933;BME280;51446;53.850;10.662;2023-12-04T05:18:17;101621.00;;;-4.17;100.00
64933;BME280;51446;53.850;10.662;2023-12-04T05:20:42;101596.06;;;-4.39;100.00
64933;BME280;51446;53.850;10.662;2023-12-04T05:23:07;101607.53;;;-4.25;100.00
64933;BME280;51446;53.850;10.662;2023-12-04T05:25:33;101612.97;;;-4.11;100.00
64933;BME280;51446;53.850;10.662;2023-12-04T05:27:58;101610.34;;;-4.22;100.00
64933;BME280;51446;53.850;10.662;2023-12-04T05:30:23;101611.06;;;-4.33;100.00
64933;BME280;51446;53.850;10.662;2023-12-04T05:32:48;101604.97;;;-4.44;100.00
64933;BME280;51446;53.850;10.662;2023-12-04T05:35:15;101598.75;;;-4.37;100.00
64933;BME280;51446;53.850;10.662;2023-12-04T05:37:40;101609.97;;;-4.26;100.00
64933;BME280;51446;53.850;10.662;2023-12-04T05:40:06;101591.25;;;-4.25;100.00
64933;BME280;51446;53.850;10.662;2023-12-04T05:42:31;101602.31;;;-4.16;100.00
64933;BME280;51446;53.850;10.662;2023-12-04T05:44:56;101597.19;;;-4.16;100.00
64933;BME280;51446;53.850;10.662;2023-12-04T05:47:22;101589.38;;;-4.18;100.00
64933;BME280;51446;53.850;10.662;2023-12-04T05:49:47;101589.81;;;-4.03;100.00
64933;BME280;51446;53.850;10.662;2023-12-04T05:52:13;101581.88;;;-4.06;100.00
64933;BME280;51446;53.850;10.662;2023-12-04T05:54:38;101593.06;;;-4.24;100.00
64933;BME280;51446;53.850;10.662;2023-12-04T05:57:03;101592.38;;;-4.32;100.00
64933;BME280;51446;53.850;10.662;2023-12-04T05:59:28;101588.03;;;-4.33;100.00
64933;BME280;51446;53.850;10.662;2023-12-04T06:01:54;101588.69;;;-4.25;100.00
64933;BME280;51446;53.850;10.662;2023-12-04T06:04:19;101578.75;;;-4.41;100.00
64933;BME280;51446;53.850;10.662;2023-12-04T06:06:44;101581.78;;;-4.26;100.00
64933;BME280;51446;53.850;10.662;2023-12-04T06:09:09;101591.50;;;-4.22;100.00
64933;BME280;51446;53.850;10.662;2023-12-04T06:11:35;101571.69;;;-4.25;100.00
64933;BME280;51446;53.850;10.662;2023-12-04T06:14:00;101581.28;;;-4.22;100.00
64933;BME280;51446;53.850;10.662;2023-12-04T06:16:25;101581.41;;;-4.21;100.00
64933;BME280;51446;53.850;10.662;2023-12-04T06:18:50;101565.41;;;-4.18;100.00
64933;BME280;51446;53.850;10.662;2023-12-04T06:21:16;101583.25;;;-4.09;100.00
64933;BME280;51446;53.850;10.662;2023-12-04T06:23:41;101577.28;;;-4.29;100.00
64933;BME280;51446;53.850;10.662;2023-12-04T06:26:07;101573.09;;;-4.18;100.00
64933;BME280;51446;53.850;10.662;2023-12-04T06:28:34;101583.59;;;-4.15;100.00
64933;BME280;51446;53.850;10.662;2023-12-04T06:30:59;101565.59;;;-4.06;100.00
64933;BME280;51446;53.850;10.662;2023-12-04T06:33:25;101563.31;;;-4.03;100.00
64933;BME280;51446;53.850;10.662;2023-12-04T06:35:51;101570.91;;;-3.94;100.00
64933;BME280;51446;53.850;10.662;2023-12-04T06:38:18;101559.00;;;-3.84;100.00
64933;BME280;51446;53.850;10.662;2023-12-04T06:40:44;101569.88;;;-3.86;100.00
64933;BME280;51446;53.850;10.662;2023-12-04T06:43:10;101565.41;;;-3.89;100.00
64933;BME280;51446;53.850;10.662;2023-12-04T06:45:35;101563.63;;;-3.79;100.00
64933;BME280;51446;53.850;10.662;2023-12-04T06:48:01;101554.81;;;-3.62;100.00
64933;BME280;51446;53.850;10.662;2023-12-04T06:50:26;101544.69;;;-3.71;100.00
64933;BME280;51446;53.850;10.662;2023-12-04T06:52:52;101537.47;;;-3.86;100.00
64933;BME280;51446;53.850;10.662;2023-12-04T06:55:17;101554.13;;;-3.80;100.00
64933;BME280;51446;53.850;10.662;2023-12-04T06:57:42;101551.75;;;-3.69;100.00
64933;BME280;51446;53.850;10.662;2023-12-04T07:00:08;101545.19;;;-3.65;100.00
64933;BME280;51446;53.850;10.662;2023-12-04T07:02:37;101539.31;;;-3.64;100.00
64933;BME280;51446;53.850;10.662;2023-12-04T07:05:02;101548.69;;;-3.54;100.00
64933;BME280;51446;53.850;10.662;2023-12-04T07:07:28;101529.69;;;-3.67;100.00
64933;BME280;51446;53.850;10.662;2023-12-04T07:09:53;101535.06;;;-3.63;100.00
64933;BME280;51446;53.850;10.662;2023-12-04T07:12:18;101521.59;;;-3.92;100.00
64933;BME280;51446;53.850;10.662;2023-12-04T07:14:44;101523.81;;;-3.76;100.00
64933;BME280;51446;53.850;10.662;2023-12-04T07:17:09;101529.69;;;-3.67;100.00
64933;BME280;51446;53.850;10.662;2023-12-04T07:19:34;101525.75;;;-3.63;100.00
64933;BME280;51446;53.850;10.662;2023-12-04T07:21:59;101532.00;;;-3.59;100.00
64933;BME280;51446;53.850;10.662;2023-12-04T07:24:25;101533.28;;;-3.64;100.00
64933;BME280;51446;53.850;10.662;2023-12-04T07:26:51;101526.88;;;-3.49;100.00
64933;BME280;51446;53.850;10.662;2023-12-04T07:29:16;101518.38;;;-3.79;100.00
64933;BME280;51446;53.850;10.662;2023-12-04T07:31:42;101510.31;;;-3.73;100.00
64933;BME280;51446;53.850;10.662;2023-12-04T07:34:07;101517.50;;;-3.59;100.00
64933;BME280;51446;53.850;10.662;2023-12-04T07:36:32;101537.00;;;-3.61;100.00
64933;BME280;51446;53.850;10.662;2023-12-04T07:38:57;101529.69;;;-3.56;100.00
64933;BME280;51446;53.850;10.662;2023-12-04T07:41:23;101537.66;;;-3.53;100.00
64933;BME280;51446;53.850;10.662;2023-12-04T07:43:48;101527.38;;;-3.53;100.00
64933;BME280;51446;53.850;10.662;2023-12-04T07:46:14;101542.16;;;-3.51;100.00
64933;BME280;51446;53.850;10.662;2023-12-04T07:48:39;101549.34;;;-3.46;100.00
64933;BME280;51446;53.850;10.662;2023-12-04T07:51:05;101544.47;;;-3.43;100.00
64933;BME280;51446;53.850;10.662;2023-12-04T07:53:31;101536.13;;;-3.41;100.00
64933;BME280;51446;53.850;10.662;2023-12-04T07:55:57;101533.81;;;-3.48;100.00
64933;BME280;51446;53.850;10.662;2023-12-04T07:58:22;101542.94;;;-3.41;100.00
64933;BME280;51446;53.850;10.662;2023-12-04T08:00:47;101537.66;;;-3.43;100.00
64933;BME280;51446;53.850;10.662;2023-12-04T08:03:13;101536.25;;;-3.39;100.00
64933;BME280;51446;53.850;10.662;2023-12-04T08:05:38;101531.25;;;-3.27;100.00
64933;BME280;51446;53.850;10.662;2023-12-04T08:08:03;101522.94;;;-3.45;100.00
64933;BME280;51446;53.850;10.662;2023-12-04T08:10:29;101527.66;;;-3.50;100.00
64933;BME280;51446;53.850;10.662;2023-12-04T08:12:54;101511.00;;;-3.35;100.00
64933;BME280;51446;53.850;10.662;2023-12-04T08:15:19;101526.75;;;-3.30;100.00
64933;BME280;51446;53.850;10.662;2023-12-04T08:17:44;101511.25;;;-3.42;100.00
64933;BME280;51446;53.850;10.662;2023-12-04T08:20:10;101512.28;;;-3.29;100.00
64933;BME280;51446;53.850;10.662;2023-12-04T08:22:39;101519.47;;;-3.25;100.00
64933;BME280;51446;53.850;10.662;2023-12-04T08:25:06;101501.38;;;-3.17;100.00
64933;BME280;51446;53.850;10.662;2023-12-04T08:27:32;101501.88;;;-3.21;100.00
64933;BME280;51446;53.850;10.662;2023-12-04T08:29:57;101506.88;;;-3.12;100.00
64933;BME280;51446;53.850;10.662;2023-12-04T08:32:23;101492.88;;;-3.16;100.00
64933;BME280;51446;53.850;10.662;2023-12-04T08:34:48;101507.00;;;-3.10;100.00
64933;BME280;51446;53.850;10.662;2023-12-04T08:37:13;101493.78;;;-3.05;100.00
64933;BME280;51446;53.850;10.662;2023-12-04T08:39:39;101500.06;;;-3.01;100.00
64933;BME280;51446;53.850;10.662;2023-12-04T08:42:04;101470.84;;;-3.14;100.00
64933;BME280;51446;53.850;10.662;2023-12-04T08:44:29;101499.03;;;-3.03;100.00
64933;BME280;51446;53.850;10.662;2023-12-04T08:46:55;101491.97;;;-2.96;100.00
64933;BME280;51446;53.850;10.662;2023-12-04T08:49:22;101482.22;;;-3.00;100.00
64933;BME280;51446;53.850;10.662;2023-12-04T08:51:47;101484.00;;;-2.99;100.00
64933;BME280;51446;53.850;10.662;2023-12-04T08:54:13;101476.28;;;-2.88;100.00
64933;BME280;51446;53.850;10.662;2023-12-04T08:56:38;101482.38;;;-2.98;100.00
64933;BME280;51446;53.850;10.662;2023-12-04T08:59:03;101462.59;;;-2.99;100.00
64933;BME280;51446;53.850;10.662;2023-12-04T09:01:28;101476.81;;;-2.82;100.00
64933;BME280;51446;53.850;10.662;2023-12-04T09:03:55;101488.00;;;-2.59;100.00
64933;BME280;51446;53.850;10.662;2023-12-04T09:06:21;101488.69;;;-2.62;100.00
64933;BME280;51446;53.850;10.662;2023-12-04T09:08:46;101499.47;;;-2.66;100.00
64933;BME280;51446;53.850;10.662;2023-12-04T09:11:11;101495.22;;;-2.66;100.00
64933;BME280;51446;53.850;10.662;2023-12-04T09:13:37;101500.59;;;-2.63;100.00
64933;BME280;51446;53.850;10.662;2023-12-04T09:16:03;101490.22;;;-2.64;100.00
64933;BME280;51446;53.850;10.662;2023-12-04T09:18:29;101487.63;;;-2.64;100.00
64933;BME280;51446;53.850;10.662;2023-12-04T09:20:54;101504.09;;;-2.72;100.00
64933;BME280;51446;53.850;10.662;2023-12-04T09:23:20;101491.25;;;-2.72;100.00
64933;BME280;51446;53.850;10.662;2023-12-04T09:25:45;101495.22;;;-2.66;100.00
64933;BME280;51446;53.850;10.662;2023-12-04T09:28:10;101496.78;;;-2.68;100.00
64933;BME280;51446;53.850;10.662;2023-12-04T09:30:36;101487.34;;;-2.57;100.00
64933;BME280;51446;53.850;10.662;2023-12-04T09:33:02;101470.59;;;-2.74;100.00
64933;BME280;51446;53.850;10.662;2023-12-04T09:35:27;101479.53;;;-2.58;100.00
64933;BME280;51446;53.850;10.662;2023-12-04T09:37:53;101476.78;;;-2.72;100.00
64933;BME280;51446;53.850;10.662;2023-12-04T09:40:19;101472.53;;;-2.71;100.00
64933;BME280;51446;53.850;10.662;2023-12-04T09:42:44;101478.66;;;-2.59;100.00
64933;BME280;51446;53.850;10.662;2023-12-04T09:45:11;101473.91;;;-2.65;100.00
64933;BME280;51446;53.850;10.662;2023-12-04T09:47:37;101487.06;;;-2.50;100.00
64933;BME280;51446;53.850;10.662;2023-12-04T09:50:03;101478.13;;;-2.55;100.00
64933;BME280;51446;53.850;10.662;2023-12-04T09:52:30;101476.91;;;-2.48;100.00
64933;BME280;51446;53.850;10.662;2023-12-04T09:54:56;101469.75;;;-2.52;100.00
64933;BME280;51446;53.850;10.662;2023-12-04T09:57:23;101463.97;;;-2.50;100.00
64933;BME280;51446;53.850;10.662;2023-12-04T09:59:50;101477.28;;;-2.44;100.00
64933;BME280;51446;53.850;10.662;2023-12-04T10:02:16;101478.59;;;-2.49;100.00
64933;BME280;51446;53.850;10.662;2023-12-04T10:04:42;101479.78;;;-2.55;100.00
64933;BME280;51446;53.850;10.662;2023-12-04T10:07:07;101476.09;;;-2.37;100.00
64933;BME280;51446;53.850;10.662;2023-12-04T10:09:33;101473.41;;;-2.38;100.00
64933;BME280;51446;53.850;10.662;2023-12-04T10:11:59;101474.19;;;-2.39;100.00
64933;BME280;51446;53.850;10.662;2023-12-04T10:14:24;101467.00;;;-2.33;100.00
64933;BME280;51446;53.850;10.662;2023-12-04T10:16:50;101457.72;;;-2.31;100.00
64933;BME280;51446;53.850;10.662;2023-12-04T10:19:22;101453.00;;;-2.37;100.00
64933;BME280;51446;53.850;10.662;2023-12-04T10:21:52;101459.41;;;-2.32;100.00
64933;BME280;51446;53.850;10.662;2023-12-04T10:24:38;101452.09;;;-2.37;100.00
64933;BME280;51446;53.850;10.662;2023-12-04T10:27:08;101443.31;;;-2.29;100.00
64933;BME280;51446;53.850;10.662;2023-12-04T10:29:45;101448.94;;;-2.23;100.00
64933;BME280;51446;53.850;10.662;2023-12-04T10:32:11;101447.03;;;-2.25;100.00
64933;BME280;51446;53.850;10.662;2023-12-04T10:34:36;101445.84;;;-2.19;100.00
64933;BME280;51446;53.850;10.662;2023-12-04T10:37:03;101438.94;;;-2.08;100.00
64933;BME280;51446;53.850;10.662;2023-12-04T10:39:30;101434.56;;;-2.09;100.00
64933;BME280;51446;53.850;10.662;2023-12-04T10:41:59;101428.44;;;-2.11;100.00
64933;BME280;51446;53.850;10.662;2023-12-04T10:44:25;101424.25;;;-1.99;100.00
64933;BME280;51446;53.850;10.662;2023-12-04T10:46:51;101426.94;;;-1.97;100.00
64933;BME280;51446;53.850;10.662;2023-12-04T10:49:17;101413.78;;;-1.90;100.00
64933;BME280;51446;53.850;10.662;2023-12-04T10:51:43;101407.91;;;-1.77;100.00
64933;BME280;51446;53.850;10.662;2023-12-04T10:54:09;101401.06;;;-1.77;100.00
64933;BME280;51446;53.850;10.662;2023-12-04T10:56:38;101407.19;;;-1.86;100.00
64933;BME280;51446;53.850;10.662;2023-12-04T10:59:11;101389.00;;;-1.66;100.00
64933;BME280;51446;53.850;10.662;2023-12-04T11:01:38;101392.84;;;-1.49;100.00
64933;BME280;51446;53.850;10.662;2023-12-04T11:04:07;101382.22;;;-1.53;100.00
64933;BME280;51446;53.850;10.662;2023-12-04T11:06:39;101374.16;;;-1.58;100.00
64933;BME280;51446;53.850;10.662;2023-12-04T11:09:05;101393.28;;;-1.43;100.00
64933;BME280;51446;53.850;10.662;2023-12-04T11:11:34;101377.50;;;-1.47;100.00
64933;BME280;51446;53.850;10.662;2023-12-04T11:14:02;101381.44;;;-1.41;100.00
64933;BME280;51446;53.850;10.662;2023-12-04T11:16:34;101373.94;;;-1.61;100.00
64933;BME280;51446;53.850;10.662;2023-12-04T11:19:18;101351.66;;;-1.72;100.00
64933;BME280;51446;53.850;10.662;2023-12-04T11:21:46;101374.16;;;-1.58;100.00
64933;BME280;51446;53.850;10.662;2023-12-04T11:24:14;101378.66;;;-1.55;100.00
64933;BME280;51446;53.850;10.662;2023-12-04T11:26:40;101379.53;;;-1.55;100.00
64933;BME280;51446;53.850;10.662;2023-12-04T11:29:07;101360.59;;;-1.67;100.00
64933;BME280;51446;53.850;10.662;2023-12-04T11:31:35;101364.31;;;-1.64;100.00
64933;BME280;51446;53.850;10.662;2023-12-04T11:34:04;101362.75;;;-1.62;100.00
64933;BME280;51446;53.850;10.662;2023-12-04T11:36:29;101361.09;;;-1.49;100.00
64933;BME280;51446;53.850;10.662;2023-12-04T11:38:54;101366.78;;;-1.53;100.00
64933;BME280;51446;53.850;10.662;2023-12-04T11:41:23;101356.38;;;-1.43;100.00
64933;BME280;51446;53.850;10.662;2023-12-04T11:43:48;101332.34;;;-1.44;100.00
64933;BME280;51446;53.850;10.662;2023-12-04T11:46:19;101347.44;;;-1.48;100.00
64933;BME280;51446;53.850;10.662;2023-12-04T11:48:54;101347.00;;;-1.31;100.00
64933;BME280;51446;53.850;10.662;2023-12-04T11:54:03;101333.47;;;-1.52;100.00
64933;BME280;51446;53.850;10.662;2023-12-04T11:56:30;101332.22;;;-1.33;100.00
64933;BME280;51446;53.850;10.662;2023-12-04T11:59:02;101322.50;;;-1.37;100.00
64933;BME280;51446;53.850;10.662;2023-12-04T12:01:28;101320.59;;;-1.40;100.00
64933;BME280;51446;53.850;10.662;2023-12-04T12:03:58;101323.38;;;-1.49;100.00
64933;BME280;51446;53.850;10.662;2023-12-04T12:06:23;101308.84;;;-1.36;100.00
64933;BME280;51446;53.850;10.662;2023-12-04T12:08:49;101308.19;;;-1.22;100.00
64933;BME280;51446;53.850;10.662;2023-12-04T12:11:15;101314.78;;;-1.14;100.00
64933;BME280;51446;53.850;10.662;2023-12-04T12:13:41;101310.81;;;-0.97;100.00
64933;BME280;51446;53.850;10.662;2023-12-04T12:16:06;101309.81;;;-0.99;100.00
64933;BME280;51446;53.850;10.662;2023-12-04T12:18:34;101299.09;;;-1.05;100.00
64933;BME280;51446;53.850;10.662;2023-12-04T12:21:00;101300.84;;;-1.04;100.00
64933;BME280;51446;53.850;10.662;2023-12-04T12:23:26;101289.84;;;-1.27;100.00
64933;BME280;51446;53.850;10.662;2023-12-04T12:25:52;101294.50;;;-1.09;100.00